Otisville, Minnesota
Current Conditions -  °F | °C
As of 5:15 PM on Tuesday 25 Nov 2014 (Local Time) from KOEO Reporting Station
Overcast Overcast  
Wind Chill: 15°   Ceiling: 5000
Heat Index: 22°   Visibility: 10mi
Dew Point: 15°   Wind: 6mph
Humidity: 73%   Direction: 170°S
Pressure: 30.07"   Gusts: NA
Location:  45.2742°N, 92.8215°W
Report Text: KOEO 252315Z AUTO 17005KT 10SM SCT034 OVC050 M05/M09 A3007 RMK AO2 T10531095
Loading
Personal Weather Stations






























Interactive Weather Map New forecast layout! Learn more

10-Day Weather Forecast

Advertisements
Track Severe Weather on mobile